sensor_id;sensor_type;location;lat;lon;timestamp;pressure;altitude;pressure_sealevel;temperature;humidity
42125;BME280;27787;44.594;11.046;2023-06-10T00:00:40;100653.56;;;22.01;100.00
42125;BME280;27787;44.594;11.046;2023-06-10T00:03:25;100651.56;;;21.85;100.00
42125;BME280;27787;44.594;11.046;2023-06-10T00:06:09;100656.53;;;21.72;100.00
42125;BME280;27787;44.594;11.046;2023-06-10T00:08:53;100656.22;;;21.58;100.00
42125;BME280;27787;44.594;11.046;2023-06-10T00:11:38;100666.22;;;21.54;100.00
42125;BME280;27787;44.594;11.046;2023-06-10T00:14:23;100665.94;;;21.62;100.00
42125;BME280;27787;44.594;11.046;2023-06-10T00:17:07;100666.84;;;21.61;100.00
42125;BME280;27787;44.594;11.046;2023-06-10T00:19:54;100670.38;;;21.63;100.00
42125;BME280;27787;44.594;11.046;2023-06-10T00:22:39;100663.66;;;21.73;100.00
42125;BME280;27787;44.594;11.046;2023-06-10T00:25:25;100664.13;;;21.84;100.00
42125;BME280;27787;44.594;11.046;2023-06-10T00:28:09;100652.13;;;21.93;100.00
42125;BME280;27787;44.594;11.046;2023-06-10T00:30:53;100655.41;;;21.99;100.00
42125;BME280;27787;44.594;11.046;2023-06-10T00:33:38;100658.00;;;22.02;100.00
42125;BME280;27787;44.594;11.046;2023-06-10T00:36:22;100660.78;;;21.99;100.00
42125;BME280;27787;44.594;11.046;2023-06-10T00:39:07;100667.19;;;21.97;100.00
42125;BME280;27787;44.594;11.046;2023-06-10T00:41:51;100655.38;;;22.01;100.00
42125;BME280;27787;44.594;11.046;2023-06-10T00:44:35;100655.38;;;22.01;100.00
42125;BME280;27787;44.594;11.046;2023-06-10T00:47:21;100659.84;;;22.00;100.00
42125;BME280;27787;44.594;11.046;2023-06-10T00:50:05;100655.47;;;21.98;100.00
42125;BME280;27787;44.594;11.046;2023-06-10T00:52:50;100658.16;;;21.98;100.00
42125;BME280;27787;44.594;11.046;2023-06-10T00:55:35;100655.41;;;21.99;100.00
42125;BME280;27787;44.594;11.046;2023-06-10T00:58:19;100657.16;;;22.00;100.00
42125;BME280;27787;44.594;11.046;2023-06-10T01:01:04;100657.16;;;22.00;100.00
42125;BME280;27787;44.594;11.046;2023-06-10T01:03:48;100652.72;;;21.99;100.00
42125;BME280;27787;44.594;11.046;2023-06-10T01:09:59;100658.06;;;22.01;100.00
42125;BME280;27787;44.594;11.046;2023-06-10T01:12:52;100666.94;;;22.03;100.00
42125;BME280;27787;44.594;11.046;2023-06-10T01:15:40;100667.88;;;22.02;100.00
42125;BME280;27787;44.594;11.046;2023-06-10T01:18:32;100663.47;;;21.99;100.00
42125;BME280;27787;44.594;11.046;2023-06-10T01:21:22;100662.00;;;21.92;100.00
42125;BME280;27787;44.594;11.046;2023-06-10T01:24:10;100661.88;;;21.95;100.00
42125;BME280;27787;44.594;11.046;2023-06-10T01:26:58;100652.63;;;22.02;100.00
42125;BME280;27787;44.594;11.046;2023-06-10T01:29:46;100658.81;;;22.04;100.00
42125;BME280;27787;44.594;11.046;2023-06-10T01:32:34;100665.03;;;22.06;100.00
42125;BME280;27787;44.594;11.046;2023-06-10T01:35:25;100668.66;;;22.05;100.00
42125;BME280;27787;44.594;11.046;2023-06-10T01:38:12;100666.88;;;22.04;100.00
42125;BME280;27787;44.594;11.046;2023-06-10T01:40:58;100668.53;;;22.08;100.00
42125;BME280;27787;44.594;11.046;2023-06-10T01:43:45;100667.72;;;22.06;100.00
42125;BME280;27787;44.594;11.046;2023-06-10T01:46:31;100673.97;;;22.07;100.00
42125;BME280;27787;44.594;11.046;2023-06-10T01:49:15;100667.66;;;22.08;100.00
42125;BME280;27787;44.594;11.046;2023-06-10T01:52:01;100660.44;;;22.08;100.00
42125;BME280;27787;44.594;11.046;2023-06-10T01:54:45;100669.63;;;22.03;100.00
42125;BME280;27787;44.594;11.046;2023-06-10T01:57:29;100661.72;;;21.98;100.00
42125;BME280;27787;44.594;11.046;2023-06-10T02:00:14;100655.47;;;21.98;100.00
42125;BME280;27787;44.594;11.046;2023-06-10T02:02:59;100650.91;;;22.00;100.00
42125;BME280;27787;44.594;11.046;2023-06-10T02:05:44;100646.38;;;22.02;100.00
42125;BME280;27787;44.594;11.046;2023-06-10T02:08:28;100645.44;;;22.03;100.00
42125;BME280;27787;44.594;11.046;2023-06-10T02:11:12;100641.97;;;21.99;100.00
42125;BME280;27787;44.594;11.046;2023-06-10T02:13:57;100641.31;;;21.94;100.00
42125;BME280;27787;44.594;11.046;2023-06-10T02:16:41;100645.88;;;21.92;100.00
42125;BME280;27787;44.594;11.046;2023-06-10T02:19:30;100640.50;;;21.92;100.00
42125;BME280;27787;44.594;11.046;2023-06-10T02:22:14;100648.50;;;21.94;100.00
42125;BME280;27787;44.594;11.046;2023-06-10T02:24:58;100650.25;;;21.95;100.00
42125;BME280;27787;44.594;11.046;2023-06-10T02:27:42;100644.88;;;21.95;100.00
42125;BME280;27787;44.594;11.046;2023-06-10T02:30:27;100649.44;;;21.93;100.00
42125;BME280;27787;44.594;11.046;2023-06-10T02:33:11;100646.88;;;21.90;100.00
42125;BME280;27787;44.594;11.046;2023-06-10T02:35:56;100652.34;;;21.87;100.00
42125;BME280;27787;44.594;11.046;2023-06-10T02:38:42;100649.72;;;21.85;100.00
42125;BME280;27787;44.594;11.046;2023-06-10T02:41:26;100646.31;;;21.82;100.00
42125;BME280;27787;44.594;11.046;2023-06-10T02:44:11;100651.63;;;21.83;100.00
42125;BME280;27787;44.594;11.046;2023-06-10T02:46:56;100653.50;;;21.81;100.00
42125;BME280;27787;44.594;11.046;2023-06-10T02:49:41;100648.84;;;21.85;100.00
42125;BME280;27787;44.594;11.046;2023-06-10T02:52:27;100650.59;;;21.86;100.00
42125;BME280;27787;44.594;11.046;2023-06-10T02:55:11;100649.72;;;21.85;100.00
42125;BME280;27787;44.594;11.046;2023-06-10T02:57:58;100649.72;;;21.85;100.00
42125;BME280;27787;44.594;11.046;2023-06-10T03:00:43;100645.38;;;21.83;100.00
42125;BME280;27787;44.594;11.046;2023-06-10T03:03:30;100647.25;;;21.81;100.00
42125;BME280;27787;44.594;11.046;2023-06-10T03:06:23;100642.81;;;21.79;100.00
42125;BME280;27787;44.594;11.046;2023-06-10T03:09:10;100643.75;;;21.78;100.00
42125;BME280;27787;44.594;11.046;2023-06-10T03:11:57;100648.13;;;21.81;100.00
42125;BME280;27787;44.594;11.046;2023-06-10T03:14:41;100639.94;;;21.84;100.00
42125;BME280;27787;44.594;11.046;2023-06-10T03:17:25;100635.34;;;21.86;100.00
42125;BME280;27787;44.594;11.046;2023-06-10T03:20:10;100635.50;;;21.83;100.00
42125;BME280;27787;44.594;11.046;2023-06-10T03:22:56;100639.13;;;21.82;100.00
42125;BME280;27787;44.594;11.046;2023-06-10T03:25:41;100632.13;;;21.78;100.00
42125;BME280;27787;44.594;11.046;2023-06-10T03:28:28;100628.63;;;21.76;100.00
42125;BME280;27787;44.594;11.046;2023-06-10T03:31:12;100624.94;;;21.78;100.00
42125;BME280;27787;44.594;11.046;2023-06-10T03:33:56;100627.69;;;21.77;100.00
42125;BME280;27787;44.594;11.046;2023-06-10T03:36:42;100626.75;;;21.78;100.00
42125;BME280;27787;44.594;11.046;2023-06-10T03:39:28;100621.50;;;21.75;100.00
42125;BME280;27787;44.594;11.046;2023-06-10T03:42:15;100625.25;;;21.71;100.00
42125;BME280;27787;44.594;11.046;2023-06-10T03:44:59;100628.00;;;21.69;100.00
42125;BME280;27787;44.594;11.046;2023-06-10T03:47:47;100626.38;;;21.65;100.00
42125;BME280;27787;44.594;11.046;2023-06-10T03:50:35;100635.44;;;21.63;100.00
42125;BME280;27787;44.594;11.046;2023-06-10T03:53:22;100632.78;;;21.61;100.00
42125;BME280;27787;44.594;11.046;2023-06-10T03:56:06;100640.84;;;21.61;100.00
42125;BME280;27787;44.594;11.046;2023-06-10T03:58:50;100644.44;;;21.62;100.00
42125;BME280;27787;44.594;11.046;2023-06-10T04:01:34;100630.16;;;21.60;100.00
42125;BME280;27787;44.594;11.046;2023-06-10T04:04:21;100628.34;;;21.60;100.00
42125;BME280;27787;44.594;11.046;2023-06-10T04:07:05;100643.50;;;21.63;100.00
42125;BME280;27787;44.594;11.046;2023-06-10T04:09:50;100631.00;;;21.62;100.00
42125;BME280;27787;44.594;11.046;2023-06-10T04:12:35;100638.38;;;21.57;100.00
42125;BME280;27787;44.594;11.046;2023-06-10T04:15:20;100639.31;;;21.56;100.00
42125;BME280;27787;44.594;11.046;2023-06-10T04:18:06;100635.88;;;21.52;100.00
42125;BME280;27787;44.594;11.046;2023-06-10T04:20:50;100632.38;;;21.50;100.00
42125;BME280;27787;44.594;11.046;2023-06-10T04:23:35;100637.75;;;21.50;100.00
42125;BME280;27787;44.594;11.046;2023-06-10T04:26:21;100635.94;;;21.51;100.00
42125;BME280;27787;44.594;11.046;2023-06-10T04:29:06;100633.13;;;21.54;100.00
42125;BME280;27787;44.594;11.046;2023-06-10T04:31:51;100638.44;;;21.55;100.00
42125;BME280;27787;44.594;11.046;2023-06-10T04:34:36;100635.81;;;21.54;100.00
42125;BME280;27787;44.594;11.046;2023-06-10T04:37:23;100643.00;;;21.53;100.00
42125;BME280;27787;44.594;11.046;2023-06-10T04:40:08;100646.56;;;21.54;100.00
42125;BME280;27787;44.594;11.046;2023-06-10T04:42:52;100640.16;;;21.56;100.00
42125;BME280;27787;44.594;11.046;2023-06-10T04:45:37;100644.66;;;21.56;100.00
42125;BME280;27787;44.594;11.046;2023-06-10T04:48:21;100642.84;;;21.56;100.00
42125;BME280;27787;44.594;11.046;2023-06-10T04:51:10;100644.66;;;21.56;100.00
42125;BME280;27787;44.594;11.046;2023-06-10T04:53:55;100637.50;;;21.56;100.00
42125;BME280;27787;44.594;11.046;2023-06-10T04:56:39;100638.50;;;21.54;100.00
42125;BME280;27787;44.594;11.046;2023-06-10T04:59:23;100638.50;;;21.54;100.00
42125;BME280;27787;44.594;11.046;2023-06-10T05:02:07;100637.63;;;21.53;100.00
42125;BME280;27787;44.594;11.046;2023-06-10T05:04:51;100635.88;;;21.52;100.00
42125;BME280;27787;44.594;11.046;2023-06-10T05:07:37;100641.25;;;21.52;100.00
42125;BME280;27787;44.594;11.046;2023-06-10T05:10:21;100641.31;;;21.51;100.00
42125;BME280;27787;44.594;11.046;2023-06-10T05:13:06;100641.19;;;21.54;100.00
42125;BME280;27787;44.594;11.046;2023-06-10T05:15:50;100640.09;;;21.58;100.00
42125;BME280;27787;44.594;11.046;2023-06-10T05:18:34;100633.69;;;21.62;100.00
42125;BME280;27787;44.594;11.046;2023-06-10T05:21:19;100634.44;;;21.65;100.00
42125;BME280;27787;44.594;11.046;2023-06-10T05:24:04;100631.63;;;21.68;100.00
42125;BME280;27787;44.594;11.046;2023-06-10T05:26:49;100636.00;;;21.71;100.00
42125;BME280;27787;44.594;11.046;2023-06-10T05:29:34;100636.78;;;21.73;100.00
42125;BME280;27787;44.594;11.046;2023-06-10T05:32:18;100639.25;;;21.79;100.00
42125;BME280;27787;44.594;11.046;2023-06-10T05:35:02;100636.56;;;21.79;100.00
42125;BME280;27787;44.594;11.046;2023-06-10T05:37:48;100641.94;;;21.79;100.00
42125;BME280;27787;44.594;11.046;2023-06-10T05:40:33;100639.13;;;21.82;100.00
42125;BME280;27787;44.594;11.046;2023-06-10T05:43:17;100640.69;;;21.88;100.00
42125;BME280;27787;44.594;11.046;2023-06-10T05:46:01;100639.69;;;21.90;100.00
42125;BME280;27787;44.594;11.046;2023-06-10T05:48:44;100637.81;;;21.92;100.00
42125;BME280;27787;44.594;11.046;2023-06-10T05:51:29;100639.34;;;21.98;100.00
42125;BME280;27787;44.594;11.046;2023-06-10T05:54:13;100639.25;;;22.01;100.00
42125;BME280;27787;44.594;11.046;2023-06-10T05:56:58;100631.13;;;22.02;100.00
42125;BME280;27787;44.594;11.046;2023-06-10T05:59:42;100641.78;;;22.05;100.00
42125;BME280;27787;44.594;11.046;2023-06-10T06:02:26;100635.38;;;22.08;100.00
42125;BME280;27787;44.594;11.046;2023-06-10T06:05:10;100638.69;;;22.15;100.00
42125;BME280;27787;44.594;11.046;2023-06-10T06:07:54;100633.03;;;22.21;100.00
42125;BME280;27787;44.594;11.046;2023-06-10T06:10:38;100631.72;;;22.31;100.00
42125;BME280;27787;44.594;11.046;2023-06-10T06:13:23;100627.69;;;22.41;100.00
42125;BME280;27787;44.594;11.046;2023-06-10T06:16:07;100637.09;;;22.51;100.00
42125;BME280;27787;44.594;11.046;2023-06-10T06:18:51;100638.50;;;22.60;100.00
42125;BME280;27787;44.594;11.046;2023-06-10T06:21:36;100634.63;;;22.67;100.00
42125;BME280;27787;44.594;11.046;2023-06-10T06:24:20;100633.59;;;22.70;100.00
42125;BME280;27787;44.594;11.046;2023-06-10T06:27:05;100637.22;;;22.69;100.00
42125;BME280;27787;44.594;11.046;2023-06-10T06:29:49;100635.59;;;22.64;100.00
42125;BME280;27787;44.594;11.046;2023-06-10T06:32:34;100637.34;;;22.65;100.00
42125;BME280;27787;44.594;11.046;2023-06-10T06:35:19;100633.59;;;22.70;100.00
42125;BME280;27787;44.594;11.046;2023-06-10T06:38:03;100632.66;;;22.71;100.00
42125;BME280;27787;44.594;11.046;2023-06-10T06:40:48;100637.63;;;22.80;100.00
42125;BME280;27787;44.594;11.046;2023-06-10T06:43:32;100638.44;;;22.82;100.00
42125;BME280;27787;44.594;11.046;2023-06-10T06:46:35;100638.16;;;22.88;100.00
42125;BME280;27787;44.594;11.046;2023-06-10T06:49:20;100634.41;;;22.92;100.00
42125;BME280;27787;44.594;11.046;2023-06-10T06:52:04;100644.56;;;22.85;100.00
42125;BME280;27787;44.594;11.046;2023-06-10T06:54:49;100644.53;;;22.65;97.81
42125;BME280;27787;44.594;11.046;2023-06-10T06:57:33;100647.31;;;22.63;96.70
42125;BME280;27787;44.594;11.046;2023-06-10T07:00:17;100637.31;;;22.67;96.68
42125;BME280;27787;44.594;11.046;2023-06-10T07:03:02;100639.50;;;22.78;97.86
42125;BME280;27787;44.594;11.046;2023-06-10T07:05:46;100646.25;;;22.88;98.21
42125;BME280;27787;44.594;11.046;2023-06-10T07:08:30;100643.22;;;22.95;97.21
42125;BME280;27787;44.594;11.046;2023-06-10T07:11:15;100628.44;;;23.04;97.84
42125;BME280;27787;44.594;11.046;2023-06-10T07:13:59;100636.31;;;23.09;98.13
42125;BME280;27787;44.594;11.046;2023-06-10T07:16:43;100634.19;;;23.15;97.52
42125;BME280;27787;44.594;11.046;2023-06-10T07:19:29;100633.22;;;23.18;97.60
42125;BME280;27787;44.594;11.046;2023-06-10T07:22:13;100631.75;;;23.11;97.72
42125;BME280;27787;44.594;11.046;2023-06-10T07:24:58;100629.03;;;23.11;98.99
42125;BME280;27787;44.594;11.046;2023-06-10T07:27:42;100637.38;;;23.05;96.37
42125;BME280;27787;44.594;11.046;2023-06-10T07:33:11;100642.44;;;23.12;94.86
42125;BME280;27787;44.594;11.046;2023-06-10T07:35:55;100641.34;;;23.16;92.77
42125;BME280;27787;44.594;11.046;2023-06-10T07:38:39;100636.03;;;23.15;90.47
42125;BME280;27787;44.594;11.046;2023-06-10T07:41:26;100643.16;;;23.16;89.82
42125;BME280;27787;44.594;11.046;2023-06-10T07:44:10;100643.38;;;23.11;87.95
42125;BME280;27787;44.594;11.046;2023-06-10T07:46:55;100644.31;;;23.10;87.95
42125;BME280;27787;44.594;11.046;2023-06-10T07:49:39;100644.31;;;23.10;87.46
42125;BME280;27787;44.594;11.046;2023-06-10T07:52:24;100642.44;;;23.12;87.93
42125;BME280;27787;44.594;11.046;2023-06-10T07:55:08;100641.28;;;23.18;87.80
42125;BME280;27787;44.594;11.046;2023-06-10T07:57:54;100638.28;;;23.24;86.74
42125;BME280;27787;44.594;11.046;2023-06-10T08:00:38;100642.31;;;23.34;86.73
42125;BME280;27787;44.594;11.046;2023-06-10T08:03:22;100641.81;;;23.45;87.31
42125;BME280;27787;44.594;11.046;2023-06-10T08:06:06;100645.06;;;23.51;87.57
42125;BME280;27787;44.594;11.046;2023-06-10T08:08:51;100634.53;;;23.47;87.71
42125;BME280;27787;44.594;11.046;2023-06-10T08:11:35;100642.75;;;23.44;88.14
42125;BME280;27787;44.594;11.046;2023-06-10T08:14:19;100645.44;;;23.44;89.59
42125;BME280;27787;44.594;11.046;2023-06-10T08:17:04;100645.56;;;23.41;90.31
42125;BME280;27787;44.594;11.046;2023-06-10T08:19:49;100644.13;;;23.34;90.38
42125;BME280;27787;44.594;11.046;2023-06-10T08:22:34;100637.78;;;23.35;90.83
42125;BME280;27787;44.594;11.046;2023-06-10T08:25:18;100643.63;;;23.44;90.42
42125;BME280;27787;44.594;11.046;2023-06-10T08:28:02;100637.13;;;23.48;89.69
42125;BME280;27787;44.594;11.046;2023-06-10T08:30:46;100634.91;;;23.58;90.07
42125;BME280;27787;44.594;11.046;2023-06-10T08:33:30;100639.91;;;23.66;89.65
42125;BME280;27787;44.594;11.046;2023-06-10T08:36:15;100635.91;;;23.74;88.58
42125;BME280;27787;44.594;11.046;2023-06-10T08:38:59;100636.47;;;23.81;88.71
42125;BME280;27787;44.594;11.046;2023-06-10T08:41:57;100631.66;;;23.88;88.61
42125;BME280;27787;44.594;11.046;2023-06-10T08:44:46;100638.47;;;23.95;88.49
42125;BME280;27787;44.594;11.046;2023-06-10T08:47:30;100638.19;;;24.01;88.16
42125;BME280;27787;44.594;11.046;2023-06-10T08:50:21;100635.41;;;24.02;87.52
42125;BME280;27787;44.594;11.046;2023-06-10T08:53:06;100636.91;;;24.08;88.30
42125;BME280;27787;44.594;11.046;2023-06-10T08:55:51;100632.25;;;24.11;88.31
42125;BME280;27787;44.594;11.046;2023-06-10T08:58:39;100635.50;;;24.18;88.86
42125;BME280;27787;44.594;11.046;2023-06-10T09:01:25;100639.78;;;24.22;87.70
42125;BME280;27787;44.594;11.046;2023-06-10T09:04:10;100638.69;;;24.26;86.99
42125;BME280;27787;44.594;11.046;2023-06-10T09:06:56;100640.28;;;24.30;86.27
42125;BME280;27787;44.594;11.046;2023-06-10T09:09:42;100640.22;;;24.32;84.32
42125;BME280;27787;44.594;11.046;2023-06-10T09:12:26;100640.13;;;24.33;82.53
42125;BME280;27787;44.594;11.046;2023-06-10T09:15:11;100637.44;;;24.33;81.64
42125;BME280;27787;44.594;11.046;2023-06-10T09:17:56;100648.88;;;24.38;82.02
42125;BME280;27787;44.594;11.046;2023-06-10T09:20:42;100646.81;;;24.44;82.19
42125;BME280;27787;44.594;11.046;2023-06-10T09:23:27;100642.19;;;24.46;82.16
42125;BME280;27787;44.594;11.046;2023-06-10T09:26:11;100648.47;;;24.46;82.15
42125;BME280;27787;44.594;11.046;2023-06-10T09:29:06;100636.72;;;24.47;83.50
42125;BME280;27787;44.594;11.046;2023-06-10T09:31:52;100637.75;;;24.45;85.00
42125;BME280;27787;44.594;11.046;2023-06-10T09:34:36;100645.06;;;24.42;85.25
42125;BME280;27787;44.594;11.046;2023-06-10T09:37:24;100637.91;;;24.41;86.54
42125;BME280;27787;44.594;11.046;2023-06-10T09:40:09;100637.13;;;24.39;87.23
42125;BME280;27787;44.594;11.046;2023-06-10T09:45:38;100642.81;;;24.33;85.59
42125;BME280;27787;44.594;11.046;2023-06-10T09:48:23;100650.22;;;24.30;86.59
42125;BME280;27787;44.594;11.046;2023-06-10T09:51:12;100642.81;;;24.33;87.78
42125;BME280;27787;44.594;11.046;2023-06-10T09:53:58;100644.72;;;24.31;88.60
42125;BME280;27787;44.594;11.046;2023-06-10T09:56:47;100646.56;;;24.31;89.00
42125;BME280;27787;44.594;11.046;2023-06-10T09:59:31;100639.25;;;24.33;89.03
42125;BME280;27787;44.594;11.046;2023-06-10T10:02:16;100632.97;;;24.32;88.44
42125;BME280;27787;44.594;11.046;2023-06-10T10:05:04;100634.03;;;24.30;88.30
42125;BME280;27787;44.594;11.046;2023-06-10T10:07:48;100631.72;;;24.22;87.45
42125;BME280;27787;44.594;11.046;2023-06-10T10:10:33;100626.97;;;24.08;88.29
42125;BME280;27787;44.594;11.046;2023-06-10T10:13:18;100624.44;;;24.05;89.25
42125;BME280;27787;44.594;11.046;2023-06-10T10:16:15;100630.88;;;24.03;89.33
42125;BME280;27787;44.594;11.046;2023-06-10T10:19:05;100623.81;;;24.00;89.67
42125;BME280;27787;44.594;11.046;2023-06-10T10:21:59;100620.09;;;24.03;90.20
42125;BME280;27787;44.594;11.046;2023-06-10T10:24:56;100619.94;;;24.06;88.39
42125;BME280;27787;44.594;11.046;2023-06-10T10:28:11;100609.00;;;24.09;87.41
42125;BME280;27787;44.594;11.046;2023-06-10T10:31:03;100616.16;;;24.10;87.90
42125;BME280;27787;44.594;11.046;2023-06-10T10:34:02;100600.34;;;24.02;88.33
42125;BME280;27787;44.594;11.046;2023-06-10T10:36:49;100605.66;;;24.04;89.34
42125;BME280;27787;44.594;11.046;2023-06-10T10:39:35;100619.94;;;24.06;88.41
42125;BME280;27787;44.594;11.046;2023-06-10T10:42:20;100619.06;;;24.05;87.64
42125;BME280;27787;44.594;11.046;2023-06-10T10:45:05;100621.28;;;23.97;86.96
42125;BME280;27787;44.594;11.046;2023-06-10T10:47:54;100623.09;;;23.97;86.71
42125;BME280;27787;44.594;11.046;2023-06-10T10:50:41;100621.56;;;23.91;86.54
42125;BME280;27787;44.594;11.046;2023-06-10T10:53:25;100626.25;;;23.88;86.98
42125;BME280;27787;44.594;11.046;2023-06-10T10:56:14;100628.44;;;23.79;86.18
42125;BME280;27787;44.594;11.046;2023-06-10T10:59:06;100628.94;;;23.70;86.36
42125;BME280;27787;44.594;11.046;2023-06-10T11:01:50;100626.34;;;23.67;85.08
42125;BME280;27787;44.594;11.046;2023-06-10T11:04:36;100624.84;;;23.62;86.34
42125;BME280;27787;44.594;11.046;2023-06-10T11:07:20;100626.66;;;23.61;85.84
42125;BME280;27787;44.594;11.046;2023-06-10T11:10:10;100632.06;;;23.61;85.40
42125;BME280;27787;44.594;11.046;2023-06-10T11:12:56;100635.72;;;23.60;84.47
42125;BME280;27787;44.594;11.046;2023-06-10T11:15:45;100635.84;;;23.57;80.21
42125;BME280;27787;44.594;11.046;2023-06-10T11:18:35;100642.44;;;23.50;78.46
42125;BME280;27787;44.594;11.046;2023-06-10T11:21:25;100638.50;;;23.38;77.70
42125;BME280;27787;44.594;11.046;2023-06-10T11:24:13;100633.13;;;23.38;73.46
42125;BME280;27787;44.594;11.046;2023-06-10T11:32:45;100620.47;;;23.21;73.43
42125;BME280;27787;44.594;11.046;2023-06-10T11:35:35;100615.22;;;23.18;73.25
42125;BME280;27787;44.594;11.046;2023-06-10T11:38:20;100622.28;;;23.21;73.34
42125;BME280;27787;44.594;11.046;2023-06-10T11:41:04;100620.75;;;23.15;75.19
42125;BME280;27787;44.594;11.046;2023-06-10T11:43:49;100616.31;;;23.14;75.38
42125;BME280;27787;44.594;11.046;2023-06-10T11:46:33;100617.09;;;23.16;75.83
42125;BME280;27787;44.594;11.046;2023-06-10T11:49:17;100619.88;;;23.15;76.53
42125;BME280;27787;44.594;11.046;2023-06-10T11:52:04;100618.03;;;23.15;77.64
42125;BME280;27787;44.594;11.046;2023-06-10T11:54:55;100612.59;;;23.17;78.63
42125;BME280;27787;44.594;11.046;2023-06-10T11:57:39;100597.28;;;23.17;78.98
42125;BME280;27787;44.594;11.046;2023-06-10T12:00:24;100600.66;;;23.22;80.28
42125;BME280;27787;44.594;11.046;2023-06-10T12:03:09;100603.34;;;23.22;82.05
42125;BME280;27787;44.594;11.046;2023-06-10T12:06:01;100598.47;;;23.31;82.63
42125;BME280;27787;44.594;11.046;2023-06-10T12:08:45;100606.25;;;23.37;82.66
42125;BME280;27787;44.594;11.046;2023-06-10T12:11:29;100615.13;;;23.39;83.07
42125;BME280;27787;44.594;11.046;2023-06-10T12:14:14;100601.22;;;23.29;85.15
42125;BME280;27787;44.594;11.046;2023-06-10T12:16:58;100603.06;;;23.29;86.03
42125;BME280;27787;44.594;11.046;2023-06-10T12:19:43;100593.59;;;23.20;88.24
42125;BME280;27787;44.594;11.046;2023-06-10T12:22:36;100595.84;;;23.10;90.19
42125;BME280;27787;44.594;11.046;2023-06-10T12:25:25;100593.16;;;23.10;88.58
42125;BME280;27787;44.594;11.046;2023-06-10T12:28:10;100594.75;;;23.14;88.31
42125;BME280;27787;44.594;11.046;2023-06-10T12:31:13;100581.00;;;23.02;88.22
42125;BME280;27787;44.594;11.046;2023-06-10T12:34:09;100582.31;;;23.12;89.86
42125;BME280;27787;44.594;11.046;2023-06-10T12:36:53;100592.44;;;23.25;91.25
42125;BME280;27787;44.594;11.046;2023-06-10T12:39:37;100589.38;;;23.33;90.94
42125;BME280;27787;44.594;11.046;2023-06-10T12:42:22;100587.16;;;23.41;87.97
42125;BME280;27787;44.594;11.046;2023-06-10T12:45:07;100596.13;;;23.42;88.50
42125;BME280;27787;44.594;11.046;2023-06-10T12:48:10;100591.03;;;23.36;89.14
42125;BME280;27787;44.594;11.046;2023-06-10T12:50:56;100588.50;;;23.33;89.60
42125;BME280;27787;44.594;11.046;2023-06-10T12:53:40;100584.88;;;23.34;89.44
42125;BME280;27787;44.594;11.046;2023-06-10T12:56:24;100582.81;;;23.39;90.27
42125;BME280;27787;44.594;11.046;2023-06-10T12:59:09;100577.84;;;23.48;91.57
42125;BME280;27787;44.594;11.046;2023-06-10T13:01:54;100581.03;;;23.57;90.42
42125;BME280;27787;44.594;11.046;2023-06-10T13:04:38;100575.31;;;23.64;90.76
42125;BME280;27787;44.594;11.046;2023-06-10T13:07:23;100574.28;;;23.67;89.91
42125;BME280;27787;44.594;11.046;2023-06-10T13:10:07;100574.06;;;23.71;88.20
42125;BME280;27787;44.594;11.046;2023-06-10T13:12:52;100571.91;;;23.78;88.06
42125;BME280;27787;44.594;11.046;2023-06-10T13:15:38;100580.75;;;23.99;85.84
42125;BME280;27787;44.594;11.046;2023-06-10T13:18:23;100577.50;;;24.09;83.19
42125;BME280;27787;44.594;11.046;2023-06-10T13:21:06;100577.88;;;24.19;81.21
42125;BME280;27787;44.594;11.046;2023-06-10T13:23:51;100577.75;;;24.22;80.25
42125;BME280;27787;44.594;11.046;2023-06-10T13:26:38;100585.28;;;24.16;79.89
42125;BME280;27787;44.594;11.046;2023-06-10T13:29:23;100585.84;;;24.22;79.84
42125;BME280;27787;44.594;11.046;2023-06-10T13:32:08;100577.41;;;24.28;80.33
42125;BME280;27787;44.594;11.046;2023-06-10T13:34:52;100587.69;;;24.39;80.53
42125;BME280;27787;44.594;11.046;2023-06-10T13:37:37;100582.03;;;24.44;80.21
42125;BME280;27787;44.594;11.046;2023-06-10T13:40:21;100588.06;;;24.49;78.84
42125;BME280;27787;44.594;11.046;2023-06-10T13:43:06;100585.03;;;24.55;78.38
42125;BME280;27787;44.594;11.046;2023-06-10T13:45:50;100581.28;;;24.57;77.38
42125;BME280;27787;44.594;11.046;2023-06-10T13:48:34;100573.19;;;24.57;76.58
42125;BME280;27787;44.594;11.046;2023-06-10T13:51:19;100564.78;;;24.63;76.53
42125;BME280;27787;44.594;11.046;2023-06-10T13:54:03;100555.47;;;24.69;76.61
42125;BME280;27787;44.594;11.046;2023-06-10T13:56:48;100554.72;;;24.83;77.34
42125;BME280;27787;44.594;11.046;2023-06-10T13:59:32;100551.59;;;24.90;77.57
42125;BME280;27787;44.594;11.046;2023-06-10T14:02:17;100551.91;;;25.02;78.73
42125;BME280;27787;44.594;11.046;2023-06-10T14:05:01;100546.94;;;25.10;77.97
42125;BME280;27787;44.594;11.046;2023-06-10T14:07:45;100550.00;;;25.19;77.82
42125;BME280;27787;44.594;11.046;2023-06-10T14:10:29;100547.75;;;25.27;78.62
42125;BME280;27787;44.594;11.046;2023-06-10T14:13:14;100551.91;;;25.33;78.37
42125;BME280;27787;44.594;11.046;2023-06-10T14:15:58;100543.28;;;25.42;78.39
42125;BME280;27787;44.594;11.046;2023-06-10T14:18:46;100546.50;;;25.49;77.59
42125;BME280;27787;44.594;11.046;2023-06-10T14:21:30;100540.22;;;25.48;78.01
42125;BME280;27787;44.594;11.046;2023-06-10T14:24:14;100540.03;;;25.51;78.25